CheckWX is a tool to help pilots better visualize weather data.  It is not intended as a substitute for an official pre-flight weather briefing.

04:37:01 UTC

KPNA TAF
Ralph Wenz Field Airport
Pinedale, Wyoming, USA
KPNA 060529Z 0606/0706 16003KT P6SM SCT035 FM061000 12004KT P6SM VCSH SCT025 BKN040 FM061800 21013G23KT P6SM VCSH SCT025 OVC035 FM062200 25012G22KT 5SM -RASN OVC025 FM070300 25005KT P6SM VCSH OVC040

Apr-6@
06:00 UTC

Apr-6 @ 06:00 UTC

Apr-6@
10:00 UTC

Apr-6 @ 10:00 UTC

TAF KPNA 060529Z 0606/0706 16003KT P6SM SCT035

Expired

Wind
  • 160° at 3 KTS
Cloud Levels
  • Scattered at 3,500' AGL

Apr-6@
10:00 UTC

Apr-6 @ 10:00 UTC

Apr-6@
18:00 UTC

Apr-6 @ 18:00 UTC

FM061000 12004KT P6SM VCSH SCT025 BKN040

Expired

Wind
  • 120° at 4 KTS
Conditions
Area Showers
Cloud Levels
  • Scattered at 2,500' AGL
  • Broken at 4,000' AGL

Apr-6@
18:00 UTC

Apr-6 @ 18:00 UTC

Apr-6@
22:00 UTC

Apr-6 @ 22:00 UTC

FM061800 21013G23KT P6SM VCSH SCT025 OVC035

Expired

Wind
  • 210° at 13 KTS
  • {Gusting to 23 KTS
Conditions
Area Showers
Cloud Levels
  • Scattered at 2,500' AGL
  • Overcast at 3,500' AGL

Apr-6@
22:00 UTC

Apr-6 @ 22:00 UTC

Apr-7@
03:00 UTC

Apr-7 @ 03:00 UTC

FM062200 25012G22KT 5SM -RASN OVC025

Expired

Wind
  • 250° at 12 KTS
  • {Gusting to 22 KTS
Conditions
Light Rain, Light Snow
Cloud Levels
  • Overcast at 2,500' AGL

Apr-7@
03:00 UTC

Apr-7 @ 03:00 UTC

Apr-7@
06:00 UTC

Apr-7 @ 06:00 UTC

FM070300 25005KT P6SM VCSH OVC040

From

From Standard forecast or significant change

Wind
  • 250° at 5 KTS
Conditions
Area Showers
Cloud Levels
  • Overcast at 4,000' AGL